createdAt,value
2024-02-23T00:02:50.286Z,7.31
2024-02-23T00:07:51.837Z,7.18
2024-02-23T00:12:53.375Z,6.99
2024-02-23T00:17:54.921Z,6.89
2024-02-23T00:22:56.524Z,7.30
2024-02-23T00:27:58.017Z,6.99
2024-02-23T00:32:59.646Z,7.11
2024-02-23T00:38:01.183Z,8.00
2024-02-23T00:43:04.138Z,7.72
2024-02-23T00:48:05.910Z,7.04
2024-02-23T00:53:07.460Z,7.48
2024-02-23T00:58:09.006Z,7.31
2024-02-23T01:03:10.539Z,7.71
2024-02-23T01:08:12.119Z,7.35
2024-02-23T01:13:13.653Z,6.84
2024-02-23T01:18:15.393Z,7.37
2024-02-23T01:23:16.975Z,7.39
2024-02-23T01:28:18.522Z,8.13
2024-02-23T01:33:20.114Z,7.67
2024-02-23T01:38:23.054Z,7.37
2024-02-23T01:43:24.591Z,8.09
2024-02-23T01:48:26.260Z,8.40
2024-02-23T01:53:27.929Z,7.44
2024-02-23T01:58:30.883Z,8.39
2024-02-23T02:03:32.830Z,8.54
2024-02-23T02:08:37.482Z,8.47
2024-02-23T02:13:39.008Z,9.10
2024-02-23T02:18:40.516Z,7.84
2024-02-23T02:23:42.230Z,8.37
2024-02-23T02:28:43.730Z,7.10
2024-02-23T02:33:45.252Z,7.10
2024-02-23T02:38:46.765Z,8.04
2024-02-23T02:43:48.308Z,8.50
2024-02-23T02:48:49.874Z,8.44
2024-02-23T02:53:51.430Z,7.97
2024-02-23T02:58:52.941Z,8.15
2024-02-23T03:03:54.500Z,8.47
2024-02-23T03:08:56.009Z,8.68
2024-02-23T03:13:57.541Z,7.89
2024-02-23T03:18:59.277Z,8.53
2024-02-23T03:24:01.258Z,9.13
2024-02-23T03:29:02.886Z,9.30
2024-02-23T03:34:04.578Z,8.47
2024-02-23T03:39:06.746Z,8.47
2024-02-23T03:44:09.076Z,8.61
2024-02-23T03:49:10.708Z,8.51
2024-02-23T03:54:12.222Z,8.66
2024-02-23T03:59:13.775Z,8.49
2024-02-23T04:04:15.313Z,8.16
2024-02-23T04:09:16.855Z,8.19
2024-02-23T04:14:18.426Z,8.13
2024-02-23T04:19:19.985Z,8.52
2024-02-23T04:24:23.984Z,8.77
2024-02-23T04:29:26.810Z,8.82
2024-02-23T04:34:31.882Z,7.73
2024-02-23T04:39:33.382Z,8.42
2024-02-23T04:44:34.968Z,8.46
2024-02-23T04:49:36.553Z,8.59
2024-02-23T04:54:38.073Z,8.62
2024-02-23T04:59:39.594Z,9.64
2024-02-23T05:04:41.149Z,9.22
2024-02-23T05:09:42.652Z,9.69
2024-02-23T05:14:44.163Z,9.30
2024-02-23T05:19:47.581Z,8.42
2024-02-23T05:24:49.218Z,8.39
2024-02-23T05:29:50.817Z,7.97
2024-02-23T05:34:54.133Z,8.66
2024-02-23T05:39:55.862Z,8.72
2024-02-23T05:44:58.346Z,8.78
2024-02-23T05:49:59.850Z,8.79
2024-02-23T05:55:01.536Z,8.70
2024-02-23T06:00:03.163Z,8.24
2024-02-23T06:05:06.156Z,9.05
2024-02-23T06:10:08.299Z,8.48
2024-02-23T06:15:10.402Z,8.91
2024-02-23T06:20:12.227Z,8.96
2024-02-23T06:25:13.783Z,9.28
2024-02-23T06:30:15.323Z,9.12
2024-02-23T06:35:16.836Z,8.79
2024-02-23T06:40:19.362Z,8.83
2024-02-23T06:45:26.670Z,9.20
2024-02-23T06:50:28.219Z,9.06
2024-02-23T06:55:29.823Z,8.70
2024-02-23T07:00:31.834Z,9.34
2024-02-23T07:05:33.609Z,9.46
2024-02-23T07:10:35.269Z,9.18
2024-02-23T07:15:37.367Z,8.94
2024-02-23T07:20:39.486Z,9.05
2024-02-23T07:25:42.109Z,9.56
2024-02-23T07:30:44.676Z,9.33
2024-02-23T07:35:46.176Z,9.52
2024-02-23T07:40:47.689Z,9.36
2024-02-23T07:45:49.189Z,9.72
2024-02-23T07:50:50.699Z,9.91
2024-02-23T07:55:52.248Z,9.85
2024-02-23T08:00:54.393Z,9.94
2024-02-23T08:05:55.931Z,9.96
2024-02-23T08:10:57.552Z,9.67
2024-02-23T08:15:59.334Z,10.19
2024-02-23T08:21:03.277Z,10.04
2024-02-23T08:26:04.819Z,10.47
2024-02-23T08:31:06.381Z,10.42
2024-02-23T08:36:08.091Z,10.21
2024-02-23T08:41:10.001Z,10.23
2024-02-23T08:46:11.658Z,10.42
2024-02-23T08:51:13.213Z,10.61
2024-02-23T08:56:17.111Z,10.78
2024-02-23T09:01:18.663Z,10.47
2024-02-23T09:06:20.944Z,10.18
2024-02-23T09:11:23.455Z,10.17
2024-02-23T09:16:25.738Z,10.59
2024-02-23T09:21:27.269Z,10.60
2024-02-23T09:26:28.893Z,10.64
2024-02-23T09:31:30.880Z,10.81
2024-02-23T09:36:32.403Z,10.61
2024-02-23T09:41:35.416Z,10.55
2024-02-23T09:46:40.006Z,10.72
2024-02-23T09:51:41.498Z,10.84
2024-02-23T09:56:43.070Z,10.97
2024-02-23T10:01:44.684Z,10.90
2024-02-23T10:06:46.309Z,11.29
2024-02-23T10:11:53.166Z,10.82
2024-02-23T10:16:56.236Z,11.20
2024-02-23T10:21:57.981Z,10.75
2024-02-23T10:26:59.576Z,10.97
2024-02-23T10:32:01.777Z,11.40
2024-02-23T10:37:03.532Z,11.48
2024-02-23T10:42:06.224Z,11.43
2024-02-23T10:47:07.750Z,11.77
2024-02-23T10:52:10.301Z,11.85
2024-02-23T10:57:11.831Z,11.81
2024-02-23T11:02:17.277Z,11.48
2024-02-23T11:07:22.248Z,12.01
2024-02-23T11:12:25.699Z,11.95
2024-02-23T11:17:27.948Z,11.51
2024-02-23T11:22:38.187Z,11.55
2024-02-23T11:27:43.397Z,11.07
2024-02-23T11:32:47.449Z,11.38
2024-02-23T11:37:50.088Z,11.29
2024-02-23T11:42:51.671Z,10.96
2024-02-23T11:47:53.451Z,11.05
2024-02-23T11:52:55.508Z,10.98
2024-02-23T11:58:01.968Z,11.34
2024-02-23T12:03:10.973Z,11.49
2024-02-23T12:08:12.627Z,11.65
2024-02-23T12:13:14.194Z,11.53
2024-02-23T12:18:15.790Z,10.82
2024-02-23T12:23:17.959Z,10.84
2024-02-23T12:28:19.740Z,10.91
2024-02-23T12:33:21.359Z,11.09
2024-02-23T12:38:23.426Z,11.07
2024-02-23T12:43:31.516Z,11.37
2024-02-23T12:48:33.062Z,10.60
2024-02-23T12:54:01.459Z,10.90
2024-02-23T12:59:03.023Z,10.67
2024-02-23T13:04:10.619Z,10.95
2024-02-23T13:09:14.486Z,11.21
2024-02-23T13:14:17.094Z,11.14
2024-02-23T13:19:18.895Z,11.06
2024-02-23T13:24:20.730Z,11.30
2024-02-23T13:29:23.324Z,11.21
2024-02-23T13:34:24.923Z,11.25
2024-02-23T13:39:26.529Z,10.97
2024-02-23T13:44:30.595Z,10.97
2024-02-23T13:49:36.351Z,11.17
2024-02-23T13:54:38.229Z,11.16
2024-02-23T13:59:39.873Z,11.12
2024-02-23T14:04:41.626Z,10.64
2024-02-23T14:09:46.662Z,10.43
2024-02-23T14:14:49.266Z,10.20
2024-02-23T14:19:52.055Z,10.33
2024-02-23T14:24:55.614Z,10.46
2024-02-23T14:29:58.672Z,10.59
2024-02-23T14:35:02.587Z,10.39
2024-02-23T14:40:04.686Z,10.39
2024-02-23T14:45:07.182Z,10.43
2024-02-23T14:50:09.834Z,10.24
2024-02-23T14:55:12.591Z,10.62
2024-02-23T15:00:14.633Z,10.14
2024-02-23T15:05:16.413Z,10.49
2024-02-23T15:10:18.053Z,10.94
2024-02-23T15:15:19.660Z,10.89
2024-02-23T15:20:21.423Z,11.12
2024-02-23T15:25:23.006Z,11.32
2024-02-23T15:30:25.817Z,11.26
2024-02-23T15:35:29.149Z,11.22
2024-02-23T15:40:30.897Z,11.18
2024-02-23T15:45:32.623Z,10.79
2024-02-23T15:50:50.369Z,11.06
2024-02-23T15:55:55.808Z,10.71
2024-02-23T16:00:57.713Z,10.90
2024-02-23T16:06:00.072Z,10.65
2024-02-23T16:11:01.791Z,10.55
2024-02-23T16:16:03.514Z,10.78
2024-02-23T16:21:05.547Z,11.10
2024-02-23T16:26:07.316Z,11.00
2024-02-23T16:31:08.894Z,11.00
2024-02-23T16:36:18.487Z,11.14
2024-02-23T16:41:20.386Z,10.98
2024-02-23T16:46:22.009Z,11.24
2024-02-23T16:51:23.762Z,11.34
2024-02-23T16:56:28.442Z,11.16
2024-02-23T17:01:30.170Z,10.82
2024-02-23T17:06:31.744Z,11.14
2024-02-23T17:11:33.427Z,10.83
2024-02-23T17:16:35.079Z,10.40
2024-02-23T17:21:36.741Z,10.19
2024-02-23T17:26:38.469Z,10.63
2024-02-23T17:31:40.096Z,10.96
2024-02-23T17:36:43.916Z,10.99
2024-02-23T17:41:47.862Z,11.22
2024-02-23T17:46:49.595Z,11.08
2024-02-23T17:51:53.605Z,11.05
2024-02-23T17:56:56.105Z,10.98
2024-02-23T18:01:57.698Z,11.20
2024-02-23T18:07:00.436Z,11.33
2024-02-23T18:12:02.210Z,11.23
2024-02-23T18:17:05.398Z,11.08
2024-02-23T18:22:06.923Z,11.11
2024-02-23T18:27:08.744Z,10.90
2024-02-23T18:32:13.052Z,11.20
2024-02-23T18:37:14.698Z,10.87
2024-02-23T18:42:18.263Z,10.94
2024-02-23T18:47:19.836Z,10.74
2024-02-23T18:52:22.452Z,10.90
2024-02-23T18:57:23.951Z,11.15
2024-02-23T19:02:25.500Z,11.29
2024-02-23T19:07:27.070Z,10.97
2024-02-23T19:12:29.350Z,10.32
2024-02-23T19:17:36.030Z,10.12
2024-02-23T19:22:38.667Z,10.20
2024-02-23T19:27:40.960Z,10.56
2024-02-23T19:32:42.750Z,10.44
2024-02-23T19:37:52.356Z,10.42
2024-02-23T19:42:55.397Z,10.65
2024-02-23T19:47:57.013Z,10.73
2024-02-23T19:52:58.869Z,10.66
2024-02-23T19:58:03.145Z,10.73
2024-02-23T20:03:04.838Z,10.78
2024-02-23T20:08:07.052Z,10.62
2024-02-23T20:13:08.748Z,10.80
2024-02-23T20:18:10.451Z,10.73
2024-02-23T20:23:13.750Z,10.85
2024-02-23T20:28:15.401Z,10.72
2024-02-23T20:33:16.979Z,10.92
2024-02-23T20:38:18.559Z,10.85
2024-02-23T20:43:20.145Z,10.66
2024-02-23T20:48:21.892Z,10.75
2024-02-23T20:53:23.601Z,10.82
2024-02-23T20:58:25.185Z,10.89
2024-02-23T21:03:28.879Z,11.05
2024-02-23T21:08:30.478Z,10.93
2024-02-23T21:13:32.379Z,11.07
2024-02-23T21:18:37.002Z,11.11
2024-02-23T21:23:38.649Z,11.06
2024-02-23T21:28:40.453Z,10.96
2024-02-23T21:33:43.061Z,11.04
2024-02-23T21:38:45.226Z,11.09
2024-02-23T21:43:46.825Z,11.00
2024-02-23T21:48:49.719Z,10.94
2024-02-23T21:53:54.462Z,11.03
2024-02-23T21:58:55.985Z,10.91
2024-02-23T22:03:58.194Z,10.99
2024-02-23T22:09:00.119Z,10.82
2024-02-23T22:14:01.742Z,10.86
2024-02-23T22:19:04.172Z,10.88
2024-02-23T22:24:05.847Z,10.93
2024-02-23T22:29:07.406Z,10.90
2024-02-23T22:34:09.036Z,10.84
2024-02-23T22:39:11.018Z,10.89
2024-02-23T22:44:13.897Z,10.73
2024-02-23T22:49:15.843Z,10.58
2024-02-23T22:54:17.547Z,10.55
2024-02-23T22:59:19.417Z,10.76
2024-02-23T23:04:21.078Z,10.82
2024-02-23T23:09:22.648Z,11.00
2024-02-23T23:14:24.366Z,10.96
2024-02-23T23:19:26.619Z,10.96
2024-02-23T23:24:29.251Z,10.87
2024-02-23T23:29:30.891Z,10.62
2024-02-23T23:34:32.713Z,10.84
2024-02-23T23:39:34.500Z,10.82
2024-02-23T23:44:36.202Z,10.72
2024-02-23T23:49:38.780Z,10.92
2024-02-23T23:54:43.059Z,10.76
2024-02-23T23:59:44.679Z,11.04
